Terminal Aerodrome Forecast
Issued by NWS Sioux Falls, SD

Home | Current Version | Previous Version | Text Only | Print | Product List | Glossary On
Versions: 1 2 3 4 5 6 7 8 9 10 11 12 13 14 15 16 17 18 19 20 21 22 23 24 25 26 27 28 29 30 31 32 33 34 35 36 37 38 39 40 41 42
913
FTUS43 KFSD 221123
TAFSUX
TAF
KSUX 221123Z 2212/2312 32008KT P6SM OVC010
     FM221900 32012KT P6SM OVC020
     FM222300 32008KT P6SM BKN035
     FM230200 32006KT P6SM SCT250
     FM231000 32004KT P6SM SCT025=

USA.gov is the U.S. government's official web portal to all federal, state and local government web resources and services.